• Join FlightAware (Why Join?)
  • Login
  • US Flag 
08:07PM EDT


 

Airport Tracker/Info


-or-


 

Live Flight TrackerFlight Track Log ✈ SWA771 ✈ 04-May-2013 ✈ KORF - KTPA

Flight Track Log - Related Links

Times and Time Zones

All times are in EDT time to prevent confusion due to time zone crossing. See the SWA771 flight status page for this flight to view local times or setup timezone preferences in your user account.

Time Position Orientation Groundspeed Altitude Reporting Facility
EDT Latitude Longitude Course Direction KTS MPH feet Rate Location/Type
01:55PM 36.8767 -76.1553 122° Southeast 232 267 4,100  Level Washington Center
01:56PM 36.8219 -76.2094 218° Southwest 287 330 6,600 3,300 Climbing Washington Center
01:57PM 36.7531 -76.2503 205° Southwest 280 322 10,700 3,660 Climbing Washington Center
01:58PM 36.6817 -76.2989 209° Southwest 306 352 13,800 3,240 Climbing Washington Center
01:59PM 36.5897 -76.3575 207° Southwest 341 392 17,400 3,300 Climbing Washington Center
02:00PM 36.4933 -76.4186 207° Southwest 370 426 20,600 2,760 Climbing Washington Center
02:01PM 36.3928 -76.4769 205° Southwest 391 450 23,000 1,260 Climbing Washington Center
02:02PM 36.2881 -76.5350 204° Southwest 408 470 23,100 1,620 Climbing Washington Center
02:03PM 36.1831 -76.5906 203° Southwest 408 470 26,200 2,820 Climbing Washington Center
02:04PM 36.0783 -76.6483 204° Southwest 413 475 28,800 2,040 Climbing Washington Center
02:05PM 35.9672 -76.7083 204° Southwest 426 490 30,400 1,680 Climbing Washington Center
02:06PM 35.8561 -76.7708 205° Southwest 437 503 32,300 2,220 Climbing Washington Center
02:07PM 35.7428 -76.8281 202° Southwest 443 510 34,800 2,460 Climbing Washington Center
02:08PM 35.6275 -76.8928 205° Southwest 428 493 37,200 1,980 Climbing Washington Center
02:09PM 35.5161 -76.9497 203° Southwest 423 487 38,900 1,320 Climbing Washington Center
02:10PM 35.4111 -77.0089 205° Southwest 423 487 40,000 540 Climbing Washington Center
02:11PM 35.3206 -77.0889 216° Southwest 418 481 40,000  Level Washington Center
02:12PM 35.2378 -77.1867 224° Southwest 410 472 40,000  Level Washington Center
02:13PM 35.1592 -77.2842 225° Southwest 410 472 40,000  Level Washington Center
02:14PM 35.0786 -77.3814 225° Southwest 410 472 40,000  Level Washington Center
02:15PM 34.9978 -77.4783 225° Southwest 405 466 40,000  Level Washington Center
02:16PM 34.9275 -77.5656 226° Southwest 405 466 40,000  Level Washington Center
02:17PM 34.8486 -77.6622 225° Southwest 405 466 40,000  Level Washington Center
02:18PM 34.7719 -77.7614 227° Southwest 405 466 40,000  Level Washington Center
02:19PM 34.6908 -77.8603 225° Southwest 405 466 40,000  Level Washington Center
02:20PM 34.6094 -77.9564 224° Southwest 410 472 40,000  Level Washington Center
02:21PM 34.5306 -78.0525 225° Southwest 410 472 40,000  Level Washington Center
02:22PM 34.4406 -78.1631 225° Southwest 410 472 40,000  Level Washington Center
02:23PM 34.3383 -78.2808 224° Southwest 418 481 40,000  Level Jacksonville Center
02:24PM 34.2583 -78.3756 224° Southwest 413 475 40,000  Level Jacksonville Center
02:25PM 34.1742 -78.4753 224° Southwest 413 475 40,000  Level Jacksonville Center
02:26PM 34.0942 -78.5694 224° Southwest 413 475 40,000  Level Jacksonville Center
02:27PM 34.0097 -78.6639 223° Southwest 413 475 40,000  Level Jacksonville Center
02:29PM 33.8447 -78.8544 224° Southwest 413 475 40,000  Level Jacksonville Center
02:30PM 33.7644 -78.9481 224° Southwest 413 475 40,000  Level Jacksonville Center
02:31PM 33.6836 -79.0414 224° Southwest 413 475 40,000  Level Jacksonville Center
02:32PM 33.6092 -79.1319 225° Southwest 405 466 40,000  Level Jacksonville Center
02:33PM 33.5286 -79.2225 223° Southwest 399 459 40,000  Level Jacksonville Center
02:34PM 33.4497 -79.3178 225° Southwest 399 459 40,000  Level Jacksonville Center
02:35PM 33.3667 -79.4083 222° Southwest 404 465 40,000  Level Jacksonville Center
02:36PM 33.2858 -79.5033 225° Southwest 404 465 40,000  Level Jacksonville Center
02:37PM 33.2047 -79.5933 223° Southwest 404 465 40,000  Level Jacksonville Center
02:38PM 33.1239 -79.6881 224° Southwest 404 465 40,000  Level Jacksonville Center
02:39PM 33.0406 -79.7803 223° Southwest 410 472 40,000  Level Jacksonville Center
02:40PM 32.9572 -79.8772 224° Southwest 415 478 40,000  Level Jacksonville Center
02:41PM 32.8719 -79.9717 223° Southwest 415 478 40,000  Level Jacksonville Center
02:42PM 32.7883 -80.0681 224° Southwest 415 478 40,000  Level Jacksonville Center
02:43PM 32.7050 -80.1597 223° Southwest 415 478 40,000  Level Jacksonville Center
02:44PM 32.6214 -80.2558 224° Southwest 415 478 40,000  Level Jacksonville Center
02:45PM 32.5356 -80.3519 223° Southwest 415 478 40,000  Level Jacksonville Center
02:46PM 32.4539 -80.4431 223° Southwest 415 478 40,000  Level Jacksonville Center
02:47PM 32.3722 -80.5361 224° Southwest 415 478 40,000  Level Jacksonville Center
02:48PM 32.2903 -80.6267 223° Southwest 410 472 40,000  Level Jacksonville Center
02:49PM 32.2083 -80.7147 222° Southwest 410 472 40,000  Level Jacksonville Center
02:50PM 32.1244 -80.8122 225° Southwest 395 455 40,000  Level Jacksonville Center
02:51PM 32.0444 -80.8975 222° Southwest 395 455 40,000  Level Jacksonville Center
02:52PM 31.9725 -80.9775 223° Southwest 395 455 40,000  Level Jacksonville Center
02:53PM 31.8925 -81.0647 223° Southwest 395 455 40,000  Level Jacksonville Center
02:54PM 31.8061 -81.1594 223° Southwest 395 455 40,000  Level Jacksonville Center
02:55PM 31.7319 -81.2389 222° Southwest 395 455 40,000  Level Jacksonville Center
02:56PM 31.6456 -81.3356 224° Southwest 395 455 40,000  Level Jacksonville Center
02:57PM 31.5672 -81.4222 223° Southwest 400 460 40,000  Level Jacksonville Center
02:58PM 31.4908 -81.5014 221° Southwest 400 460 40,000  Level Jacksonville Center
02:59PM 31.4000 -81.5978 222° Southwest 406 467 40,000 -420 Level Jacksonville Center
03:00PM 31.3256 -81.6839 225° Southwest 406 467 39,200 -900 Descending Jacksonville Center
03:01PM 31.2408 -81.7700 221° Southwest 411 473 38,200 -600 Descending Jacksonville Center
03:02PM 31.1306 -81.8222 202° Southwest 411 473 38,000 -120 Descending Jacksonville Center
03:03PM 31.0181 -81.8600 196° South 423 487 38,000  Level Jacksonville Center
03:04PM 30.9078 -81.9119 202° Southwest 428 493 38,000  Level Jacksonville Center
03:05PM 30.8019 -81.9686 205° Southwest 428 493 38,000  Level Jacksonville Center
03:06PM 30.6936 -82.0253 204° Southwest 428 493 38,000  Level Jacksonville Center
03:07PM 30.5811 -82.0697 199° South 433 498 38,000  Level Jacksonville Center
03:08PM 30.4667 -82.0997 193° South 427 491 38,000  Level Jacksonville Center
03:09PM 30.3500 -82.1344 194° South 427 491 38,000 -300 Level Jacksonville Center
03:10PM 30.2311 -82.1689 194° South 433 498 37,500 -600 Descending Jacksonville Center
03:11PM 30.1164 -82.2033 195° South 433 498 36,900 -840 Descending Jacksonville Center
03:12PM 29.9914 -82.2425 195° South 427 491 35,900 -1,920 Descending Jacksonville Center
03:13PM 29.8789 -82.2769 195° South 427 491 33,100 -2,640 Descending Jacksonville Center
03:14PM 29.7683 -82.3089 194° South 427 491 30,700 -2,220 Descending Jacksonville Center
03:15PM 29.6703 -82.3333 192° South 416 479 28,700 -1,920 Descending Jacksonville Center
03:16PM 29.5661 -82.3553 190° South 405 466 26,900 -1,260 Descending Jacksonville Center
03:17PM 29.4533 -82.3439 175° South 392 451 26,200 -900 Descending Jacksonville Center
03:18PM 29.3425 -82.3303 174° South 397 457 25,200 -1,560 Descending Jacksonville Center
03:19PM 29.2361 -82.3167 174° South 397 457 23,100 -2,100 Descending Jacksonville Center
03:20PM 29.1336 -82.3031 173° South 392 451 21,100 -2,040 Descending Jacksonville Center
03:21PM 29.0356 -82.2917 174° South 373 429 19,100 -2,100 Descending Jacksonville Center
03:22PM 28.9394 -82.2806 174° South 362 417 17,000 -2,040 Descending Jacksonville Center
03:23PM 28.8456 -82.2717 175° South 350 403 15,100 -1,620 Descending Jacksonville Center
03:25PM 28.6667 -82.2500 174° South 324 373 12,300 -1,260 Descending Tampa TRACON
03:26PM 28.5667 -82.2500 180° South 333 383 11,400 -660 Descending Tampa TRACON
03:27PM 28.4667 -82.2500 180° South 340 391 11,000 -240 Descending Tampa TRACON
03:28PM 28.3833 -82.2833 199° South 330 380 11,000 -480 Level Tampa TRACON
03:29PM 28.3000 -82.3167 199° South 305 351 10,100 -1,440 Descending Tampa TRACON
03:30PM 28.2167 -82.3500 199° South 291 335 8,100 -1,620 Descending Tampa TRACON
03:31PM 28.1500 -82.3667 192° South 291 335 6,800 -1,440 Descending Tampa TRACON
03:32PM 28.0667 -82.3833 190° South 273 314 5,400 -900 Descending Tampa TRACON
03:33PM 28.0000 -82.4167 204° Southwest 269 310 5,000 -720 Descending Tampa TRACON
03:34PM 27.9167 -82.4500 199° South 261 300 3,900 -1,200 Descending Tampa TRACON
03:35PM 27.8500 -82.4667 192° South 251 289 2,600 -780 Descending Tampa TRACON
03:36PM 27.8167 -82.5000 221° Southwest 238 274 2,600 -60 Level Tampa TRACON
03:37PM 27.8500 -82.5500 307° West 209 241 2,500 -720 Descending Tampa TRACON
03:38PM 27.9000 -82.5500 360° North 184 212 1,200 -1,140 Descending Tampa TRACON
03:39PM 27.9333 -82.5500 360° North 136 157 400 -840 Descending Tampa TRACON
03:41PM 27.9667 -82.5167 350° North  Level FlightAware Approximate
03:48PM 27.9755 -82.5332 350° North  Level Estimated
03:49PM 27.9755 -82.5332 350° North  Level Estimated